TimeMST,TemperatureF,Dew PointF,Humidity,Sea Level PressureIn,VisibilityMPH,Wind Direction,Wind SpeedMPH,Gust SpeedMPH,PrecipitationIn,Events,Conditions,WindDirDegrees,DateUTC
12:53 AM,18.0,12.9,81,30.08,10.0,SSE,4.6,-,N/A,,Clear,160,2013-03-08 07:53:00
1:53 AM,17.1,12.0,81,30.08,10.0,SE,4.6,-,N/A,,Clear,140,2013-03-08 08:53:00
2:53 AM,16.0,12.0,84,30.06,10.0,South,5.8,-,N/A,,Clear,170,2013-03-08 09:53:00
3:53 AM,16.0,10.9,81,30.05,10.0,Calm,Calm,-,N/A,,Clear,0,2013-03-08 10:53:00
4:53 AM,14.0,10.9,88,30.06,10.0,SSE,4.6,-,N/A,,Clear,160,2013-03-08 11:53:00
5:53 AM,12.9,10.0,88,30.06,10.0,SE,4.6,-,N/A,,Clear,130,2013-03-08 12:53:00
6:53 AM,12.0,9.0,88,30.07,10.0,SSE,3.5,-,N/A,,Clear,150,2013-03-08 13:53:00
7:53 AM,12.0,8.1,84,30.11,10.0,SE,3.5,-,N/A,,Clear,140,2013-03-08 14:53:00
8:53 AM,17.1,12.9,84,30.08,10.0,Calm,Calm,-,N/A,,Clear,0,2013-03-08 15:53:00
9:53 AM,21.0,16.0,81,30.05,10.0,Calm,Calm,-,N/A,,Clear,0,2013-03-08 16:53:00
10:53 AM,28.9,17.1,61,30.01,10.0,Calm,Calm,-,N/A,,Clear,0,2013-03-08 17:53:00
11:53 AM,30.9,17.1,57,30.01,10.0,Calm,Calm,-,N/A,,Clear,0,2013-03-08 18:53:00
12:53 PM,36.0,15.1,43,29.97,10.0,North,3.5,-,N/A,,Mostly Cloudy,360,2013-03-08 19:53:00
1:53 PM,37.0,15.1,41,29.95,10.0,Calm,Calm,-,N/A,,Clear,0,2013-03-08 20:53:00
2:53 PM,39.9,16.0,38,29.93,10.0,Calm,Calm,-,N/A,,Clear,0,2013-03-08 21:53:00
3:53 PM,39.9,14.0,35,29.93,10.0,West,8.1,-,N/A,,Clear,270,2013-03-08 22:53:00
4:53 PM,41.0,10.0,28,29.93,10.0,WNW,8.1,-,N/A,,Clear,300,2013-03-08 23:53:00
5:53 PM,37.9,10.0,32,29.96,10.0,West,4.6,-,N/A,,Clear,280,2013-03-09 00:53:00
6:53 PM,34.0,12.0,40,30.01,10.0,NW,8.1,-,N/A,,Clear,310,2013-03-09 01:53:00
7:53 PM,28.9,12.9,51,30.06,10.0,Calm,Calm,-,N/A,,Clear,0,2013-03-09 02:53:00
8:53 PM,24.1,14.0,65,30.08,10.0,Calm,Calm,-,N/A,,Clear,0,2013-03-09 03:53:00
9:53 PM,21.9,12.9,68,30.09,10.0,SE,4.6,-,N/A,,Clear,130,2013-03-09 04:53:00
10:53 PM,21.0,12.0,68,30.08,10.0,ESE,4.6,-,N/A,,Clear,120,2013-03-09 05:53:00
11:53 PM,19.0,10.9,71,30.09,10.0,SE,5.8,-,N/A,,Clear,140,2013-03-09 06:53:00